모두
Glenbrook NPWS Airport (Glenbrook, NSW) YGLK 기상
There is no TAF data available at YGLK. Showing TAF data for YSWS (9 mi 동남).
WSI 터미널 지역 예측(YGLK에 대한 데이터 없음)
| Here is the undecoded forecast: 2026/09/05 02:00 YSWS 050203Z 0502/0600 36015G25KT CAVOK FM050300 30020G32KT CAVOK FM051000 25010KT CAVOK PROB30 INTER 0505/0510 VRB30G50KT 5000 TSRA SCT100CB |
There is no METAR data available at YGLK. Showing METAR data for YSWS (9 mi 동남).
최근 WSI METAR 이력(YGLK에 대한 데이터 없음)
| Date | Time (AEST) | Flight Rules | Wind Dir. | Speed | Type | Height AGL (ft) | Visibility | Temp (°C) | Temp (°F) | Dew Point (°C) | Dew Point (°F) | Rel. Humid. | Pressure | Density Altitude | Remarks |
|---|---|---|---|---|---|---|---|---|---|---|---|---|---|---|---|
| 05-9월 | 12:48 | VFR | 330° | 17 kt | Few |
12,000 |
10000 meters | 31° | 87° | 9° | 48° | 26% | 1007 mb | 2,363 ft | Wind gusting to 27 KT |
| 05-9월 | 12:44 | VFR | 330° | 17 kt | Few |
12,000 |
10000 meters | 31° | 87° | 8° | 46° | 24% | 1007 mb | 2,363 ft | |
| 05-9월 | 12:30 | VFR | 360° | 9 kt | Few |
12,000 |
10000 meters | 29° | 84° | 9° | 48° | 29% | 1008 mb | 2,094 ft | |
| 05-9월 | 12:11 | VFR | 350° | 11 kt | 10000 meters | 29° | 84° | 10° | 50° | 31% | 1009 mb | 2,064 ft | |||
| 05-9월 | 12:01 | VFR | 10° | 15 kt | 10000 meters | 29° | 84° | 10° | 50° | 31% | 1009 mb | 2,064 ft | Wind gusting to 25 KT | ||
| 05-9월 | 11:30 | VFR | 360° | 16 kt | 10000 meters | 27° | 80° | 9° | 48° | 32% | 1009 mb | 1,824 ft | |||
| 05-9월 | 11:00 | VFR | 30° | 10 kt | 10000 meters | 26° | 78° | 11° | 51° | 39% | 1011 mb | 1,645 ft | |||
| 05-9월 | 10:00 | VFR | 40° | 8 kt | 10000 meters | 22° | 71° | 10° | 50° | 46% | 1013 mb | 1,106 ft | |||
| 05-9월 | 09:30 | VFR | 360° | 9 kt | 10000 meters | 21° | 69° | 10° | 50° | 49% | 1013 mb | 986 ft | |||
| 05-9월 | 09:00 | VFR | 360° | 10 kt | 10000 meters | 19° | 66° | 10° | 50° | 56% | 1014 mb | 717 ft | |||
| 05-9월 | 08:30 | VFR | 10° | 7 kt | 10000 meters | 16° | 60° | 10° | 50° | 68% | 1014 mb | 357 ft | |||
| 05-9월 | 08:00 | VFR | 360° | 6 kt | 10000 meters | 14° | 57° | 10° | 50° | 77% | 1015 mb | 87 ft | |||
| 05-9월 | 07:30 | VFR | 260° | 4 kt | 10000 meters | 12° | 53° | 9° | 48° | 82% | 1015 mb | -153 ft | |||
| 05-9월 | 07:00 | VFR | 210° | 2 kt | 10000 meters | 11° | 51° | 9° | 48° | 87% | 1015 mb | -273 ft | |||
| 05-9월 | 06:30 | VFR | 230° | 6 kt | 10000 meters | 10° | 50° | 8° | 46° | 87% | 1015 mb | -393 ft | |||
| 05-9월 | 06:00 | VFR | 230° | 7 kt | 10000 meters | 10° | 50° | 8° | 46° | 87% | 1015 mb | -393 ft | |||
| 05-9월 | 05:30 | VFR | 240° | 5 kt | 10000 meters | 10° | 50° | 8° | 46° | 87% | 1015 mb | -393 ft | |||
| 05-9월 | 05:00 | VFR | 220° | 4 kt | 10000 meters | 10° | 50° | 8° | 46° | 87% | 1015 mb | -393 ft | |||
| 05-9월 | 04:30 | VFR | 210° | 4 kt | 10000 meters | 10° | 50° | 8° | 46° | 87% | 1015 mb | -393 ft | |||
| 05-9월 | 04:00 | VFR | 230° | 6 kt | 10000 meters | 10° | 50° | 8° | 46° | 87% | 1016 mb | -422 ft | |||
| 05-9월 | 03:30 | VFR | 280° | 3 kt | 10000 meters | 11° | 51° | 8° | 46° | 82% | 1015 mb | -273 ft | |||
| 05-9월 | 03:00 | VFR | Calm | 10000 meters | 12° | 53° | 9° | 48° | 82% | 1015 mb | -153 ft | ||||
| 05-9월 | 02:30 | VFR | Calm | 10000 meters | 12° | 53° | 9° | 48° | 82% | 1016 mb | -182 ft | ||||
| 05-9월 | 02:00 | VFR | 70° | 2 kt | 10000 meters | 12° | 53° | 8° | 46° | 76% | 1017 mb | -212 ft |
로그인
| 귀하의 브라우저는 지원되지 않습니다.. 브라우저를 업그레이드하세요 |
